Bowling Green Warren County Regional Airport
KBWG : now visible

Airfield :











YOU CAN JOIN US ON...

 
LOGIN :

Register | Disclaimer

   EN    FR    IT 

 









Legend :    VFR   Marginal VFR   IFR   Intensive IFR   Very Intensive IFR
Visi :
Ceiling :
>= 8 km
>= 3000ft
5 to 8 km
1000 to 3000 ft
1500m to 5 km
500 to 1000 ft
800 to 1500m
200 to 500 ft
< 800m
< 200 ft
Symbols :   Thunderstorms  Fog  Heavy snow  Heavy precipitations  Wind > 20 kt






- Airport Elevation : 547 ft


KBWG - Bowling Green Warren County Regional

CURRENT METAR :
  • 140117Z AUTO 00000KT 5SM BR SCT003 OVC009 08/07 A2981 RMK AO2 CIG 007V011 T00830067

EXPIRED METARs :
  • 140053Z AUTO 00000KT 5SM BR BKN003 OVC007 08/07 A2982 RMK AO2 RAE19 CIG 002V005 SLP096 P0002 T00830067
  • 140029Z AUTO 00000KT 7SM BKN006 OVC010 08/07 A2983 RMK AO2 RAE19 CIG 004V008 P0002 T00830067
  • 140008Z AUTO 00000KT 5SM -RA BR OVC010 08/07 A2983 RMK AO2 CIG 003V010 P0001 T00830067
  • 132353Z AUTO 00000KT 7SM -RA OVC006 08/07 A2984 RMK AO2 CIG 003V010 SLP106 P0001 60015 T00830067 10089 20083 55012
  • 132253Z AUTO 04003KT 5SM -RA BR OVC007 08/07 A2984 RMK AO2 CIG 006V012 SLP104 P0009 T00830067
  • 132240Z AUTO 00000KT 3SM RA BR BKN009 OVC012 08/07 A2985 RMK AO2 CIG 007V010 P0008 T00830067
  • 132223Z AUTO 00000KT 3SM RA BR OVC010 08/07 A2986 RMK AO2 P0005 T00830067

TAF KBWG
Valid from the 14 at 01:00 until the 15 at 00:00 UTC


140054Z 1401/1424 00000KT 6SM BR BKN006 OVC010
FM140300 26005KT 1 1/2SM -RA BR OVC003
TEMPO 1403/1407 4SM -RA BR SCT003 OVC007
FM140700 29005KT 4SM BR OVC007
FM141500 25008KT P6SM OVC015
FM141800 25008KT P6SM SCT015 BKN025 OVC070



MET'MAP, your aeronautical weather chart ! - Copyright ORBIFLY December 2007 - Disclaimer

ORBIFLY MET'MAP TEAM :

Programming & Development : Alexandra Zaïnal
Concept & original design : Baudouin d'Aumeries
Assistance for programming : Marc-Olivier Méhu
Technical & hardware support : Manuel Goepfert

Contact : metmap@orbifly.com




SOURCES & CREDITS :

   NOAA       Earth
Advisory